createdAt,value
2023-04-06T00:00:45.144Z,65.19
2023-04-06T00:01:45.118Z,65.19
2023-04-06T00:02:45.039Z,64.81
2023-04-06T00:03:45.015Z,64.81
2023-04-06T00:04:44.906Z,65.38
2023-04-06T00:05:44.849Z,65.38
2023-04-06T00:06:44.805Z,65.29
2023-04-06T00:07:44.727Z,65.38
2023-04-06T00:08:44.667Z,65.29
2023-04-06T00:09:44.618Z,65.29
2023-04-06T00:10:44.561Z,65.29
2023-04-06T00:11:44.495Z,65.00
2023-04-06T00:12:44.437Z,65.38
2023-04-06T00:13:44.376Z,65.58
2023-04-06T00:14:44.317Z,65.19
2023-04-06T00:15:44.269Z,65.19
2023-04-06T00:16:44.290Z,65.29
2023-04-06T00:17:44.154Z,65.38
2023-04-06T00:18:44.079Z,64.81
2023-04-06T00:19:44.023Z,65.19
2023-04-06T00:20:43.969Z,65.38
2023-04-06T00:21:43.938Z,65.19
2023-04-06T00:22:43.846Z,65.10
2023-04-06T00:23:43.785Z,65.38
2023-04-06T00:24:43.727Z,65.38
2023-04-06T00:25:43.675Z,65.29
2023-04-06T00:26:43.603Z,65.38
2023-04-06T00:27:43.554Z,65.38
2023-04-06T00:28:43.496Z,65.00
2023-04-06T00:29:43.429Z,65.38
2023-04-06T00:30:43.371Z,65.29
2023-04-06T00:31:43.356Z,65.19
2023-04-06T00:32:43.297Z,65.38
2023-04-06T00:33:43.203Z,65.19
2023-04-06T00:34:43.138Z,65.29
2023-04-06T00:35:43.110Z,65.29
2023-04-06T00:36:43.021Z,65.19
2023-04-06T00:37:42.986Z,65.38
2023-04-06T00:38:42.905Z,65.38
2023-04-06T00:39:42.849Z,65.10
2023-04-06T00:40:42.784Z,65.38
2023-04-06T00:41:42.742Z,65.19
2023-04-06T00:42:42.666Z,65.29
2023-04-06T00:43:42.613Z,65.38
2023-04-06T00:44:42.551Z,65.38
2023-04-06T00:45:42.519Z,65.10
2023-04-06T00:46:42.432Z,65.38
2023-04-06T00:47:42.399Z,65.00
2023-04-06T00:48:42.312Z,65.19
2023-04-06T00:49:42.249Z,65.19
2023-04-06T00:50:42.202Z,65.10
2023-04-06T00:51:42.136Z,65.48
2023-04-06T00:52:42.072Z,65.48
2023-04-06T00:53:42.056Z,65.38
2023-04-06T00:54:41.966Z,65.10
2023-04-06T00:55:41.906Z,65.10
2023-04-06T00:56:41.839Z,65.38
2023-04-06T00:57:41.798Z,65.10
2023-04-06T00:58:41.748Z,65.19
2023-04-06T00:59:41.810Z,65.10
2023-04-06T01:00:41.599Z,65.48
2023-04-06T01:01:41.553Z,65.38
2023-04-06T01:02:41.536Z,65.10
2023-04-06T01:03:41.426Z,65.10
2023-04-06T01:04:41.408Z,65.38
2023-04-06T01:05:56.186Z,65.38
2023-04-06T01:06:41.249Z,65.38
2023-04-06T01:07:41.194Z,65.48
2023-04-06T01:08:41.131Z,65.29
2023-04-06T01:09:41.082Z,65.19
2023-04-06T01:10:41.063Z,65.19
2023-04-06T01:11:40.954Z,65.29
2023-04-06T01:12:40.897Z,65.19
2023-04-06T01:13:40.868Z,65.10
2023-04-06T01:14:40.777Z,65.38
2023-04-06T01:15:40.752Z,65.48
2023-04-06T01:16:40.661Z,65.19
2023-04-06T01:17:40.614Z,65.10
2023-04-06T01:18:40.553Z,65.19
2023-04-06T01:19:40.484Z,65.19
2023-04-06T01:20:40.421Z,65.29
2023-04-06T01:21:40.368Z,65.19
2023-04-06T01:22:40.301Z,65.29
2023-04-06T01:23:40.253Z,65.19
2023-04-06T01:24:40.191Z,65.10
2023-04-06T01:25:40.125Z,65.48
2023-04-06T01:26:40.089Z,65.19
2023-04-06T01:27:40.015Z,65.19
2023-04-06T01:28:39.954Z,65.38
2023-04-06T01:29:39.903Z,64.90
2023-04-06T01:30:39.832Z,65.35
2023-04-06T01:31:39.823Z,65.29
2023-04-06T01:32:39.740Z,65.29
2023-04-06T01:33:39.657Z,65.19
2023-04-06T01:34:39.595Z,65.16
2023-04-06T01:35:39.591Z,65.48
2023-04-06T01:36:39.481Z,65.29
2023-04-06T01:37:39.420Z,65.38
2023-04-06T01:38:41.217Z,65.35
2023-04-06T01:39:39.301Z,65.00
2023-04-06T01:40:39.238Z,65.16
2023-04-06T01:41:39.181Z,65.10
2023-04-06T01:42:39.122Z,65.25
2023-04-06T01:43:39.064Z,65.35
2023-04-06T01:44:39.002Z,65.16
2023-04-06T01:45:38.955Z,65.29
2023-04-06T01:46:38.945Z,65.06
2023-04-06T01:47:38.898Z,65.19
2023-04-06T01:48:38.766Z,65.16
2023-04-06T01:49:38.707Z,65.16
2023-04-06T01:50:38.647Z,65.29
2023-04-06T01:51:38.585Z,65.25
2023-04-06T01:52:38.522Z,65.35
2023-04-06T01:53:38.482Z,65.45
2023-04-06T01:54:38.416Z,65.29
2023-04-06T01:55:38.375Z,65.67
2023-04-06T01:56:38.287Z,65.64
2023-04-06T01:57:38.232Z,65.35
2023-04-06T01:58:38.177Z,65.45
2023-04-06T01:59:38.251Z,64.97
2023-04-06T02:00:38.088Z,65.29
2023-04-06T02:01:38.134Z,65.64
2023-04-06T02:02:38.024Z,65.64
2023-04-06T02:03:37.887Z,65.06
2023-04-06T02:04:37.817Z,64.59
2023-04-06T02:05:37.761Z,65.25
2023-04-06T02:06:37.705Z,65.06
2023-04-06T02:07:37.640Z,65.06
2023-04-06T02:08:37.581Z,64.87
2023-04-06T02:09:37.522Z,65.06
2023-04-06T02:10:37.471Z,64.87
2023-04-06T02:11:37.407Z,65.25
2023-04-06T02:12:37.340Z,65.06
2023-04-06T02:13:37.286Z,65.16
2023-04-06T02:14:37.224Z,64.59
2023-04-06T02:15:37.166Z,65.25
2023-04-06T02:16:37.209Z,65.06
2023-04-06T02:17:37.072Z,64.59
2023-04-06T02:18:36.985Z,64.97
2023-04-06T02:19:36.931Z,64.97
2023-04-06T02:20:36.871Z,65.16
2023-04-06T02:21:36.811Z,64.59
2023-04-06T02:22:38.720Z,65.16
2023-04-06T02:23:36.688Z,64.59
2023-04-06T02:24:36.634Z,65.06
2023-04-06T02:25:36.576Z,64.59
2023-04-06T02:26:36.516Z,65.35
2023-04-06T02:27:36.454Z,65.54
2023-04-06T02:28:36.396Z,64.97
2023-04-06T02:29:36.334Z,65.06
2023-04-06T02:30:36.280Z,64.87
2023-04-06T02:31:36.253Z,65.25
2023-04-06T02:32:36.175Z,65.06
2023-04-06T02:33:36.111Z,65.06
2023-04-06T02:34:36.040Z,64.87
2023-04-06T02:35:35.995Z,64.59
2023-04-06T02:36:35.926Z,65.54
2023-04-06T02:37:35.888Z,64.59
2023-04-06T02:38:35.799Z,65.54
2023-04-06T02:39:35.743Z,65.64
2023-04-06T02:40:35.681Z,65.64
2023-04-06T02:41:35.619Z,65.06
2023-04-06T02:42:35.565Z,64.78
2023-04-06T02:43:35.497Z,64.97
2023-04-06T02:44:35.439Z,65.06
2023-04-06T02:45:35.434Z,64.40
2023-04-06T02:46:35.344Z,64.50
2023-04-06T02:47:35.299Z,65.06
2023-04-06T02:48:35.207Z,65.06
2023-04-06T02:49:35.151Z,64.59
2023-04-06T02:50:35.089Z,64.78
2023-04-06T02:51:35.039Z,64.69
2023-04-06T02:52:34.968Z,64.69
2023-04-06T02:53:34.902Z,64.50
2023-04-06T02:54:34.848Z,64.69
2023-04-06T02:55:34.795Z,64.59
2023-04-06T02:56:34.734Z,64.69
2023-04-06T02:57:34.673Z,65.06
2023-04-06T02:58:34.624Z,64.87
2023-04-06T02:59:34.588Z,65.06
2023-04-06T03:00:34.493Z,64.87
2023-04-06T03:01:34.498Z,65.16
2023-04-06T03:02:34.409Z,65.06
2023-04-06T03:03:34.513Z,65.16
2023-04-06T03:04:34.254Z,64.78
2023-04-06T03:05:34.207Z,64.69
2023-04-06T03:06:34.137Z,64.87
2023-04-06T03:07:34.082Z,64.69
2023-04-06T03:08:34.013Z,64.50
2023-04-06T03:09:33.957Z,64.59
2023-04-06T03:10:33.898Z,64.78
2023-04-06T03:11:33.841Z,64.50
2023-04-06T03:12:33.780Z,64.69
2023-04-06T03:13:33.733Z,65.16
2023-04-06T03:14:33.664Z,65.06
2023-04-06T03:15:33.668Z,64.69
2023-04-06T03:16:33.544Z,64.87
2023-04-06T03:17:33.515Z,64.87
2023-04-06T03:18:33.422Z,64.50
2023-04-06T03:19:33.361Z,64.87
2023-04-06T03:20:33.297Z,64.59
2023-04-06T03:21:33.260Z,64.69
2023-04-06T03:22:33.176Z,64.97
2023-04-06T03:23:33.128Z,64.59
2023-04-06T03:24:33.069Z,64.50
2023-04-06T03:25:32.999Z,64.59
2023-04-06T03:26:32.946Z,64.59
2023-04-06T03:27:32.884Z,64.50
2023-04-06T03:28:32.822Z,64.59
2023-04-06T03:29:32.762Z,64.97
2023-04-06T03:30:35.233Z,65.35
2023-04-06T03:31:33.250Z,65.16
2023-04-06T03:32:32.599Z,64.69
2023-04-06T03:33:32.523Z,64.69
2023-04-06T03:34:32.463Z,64.87
2023-04-06T03:35:32.436Z,64.87
2023-04-06T03:36:32.350Z,64.50
2023-04-06T03:37:32.300Z,65.16
2023-04-06T03:38:32.228Z,64.69
2023-04-06T03:39:32.171Z,64.69
2023-04-06T03:40:32.103Z,64.50
2023-04-06T03:41:32.045Z,64.59
2023-04-06T03:42:31.998Z,64.59
2023-04-06T03:43:31.922Z,64.50
2023-04-06T03:44:31.863Z,64.50
2023-04-06T03:45:31.809Z,64.69
2023-04-06T03:46:31.765Z,64.50
2023-04-06T03:47:31.692Z,64.50
2023-04-06T03:48:31.633Z,64.69
2023-04-06T03:49:31.566Z,64.87
2023-04-06T03:50:31.514Z,64.40
2023-04-06T03:51:31.446Z,65.16
2023-04-06T03:52:31.390Z,64.69
2023-04-06T03:53:31.356Z,65.25
2023-04-06T03:54:31.284Z,65.16
2023-04-06T03:55:31.212Z,65.25
2023-04-06T03:56:31.149Z,65.16
2023-04-06T03:57:33.720Z,64.87
2023-04-06T03:58:31.033Z,64.78
2023-04-06T03:59:31.043Z,64.87
2023-04-06T04:00:30.920Z,65.35
2023-04-06T04:01:30.893Z,65.35
2023-04-06T04:02:30.949Z,64.40
2023-04-06T04:03:30.835Z,64.59
2023-04-06T04:04:30.679Z,64.87
2023-04-06T04:05:30.754Z,65.35
2023-04-06T04:06:30.560Z,64.59
2023-04-06T04:07:30.514Z,64.94
2023-04-06T04:08:30.433Z,64.87
2023-04-06T04:09:30.380Z,64.59
2023-04-06T04:10:30.315Z,64.40
2023-04-06T04:11:30.259Z,64.59
2023-04-06T04:12:30.199Z,65.25
2023-04-06T04:13:30.131Z,65.16
2023-04-06T04:14:30.078Z,64.87
2023-04-06T04:15:30.034Z,64.75
2023-04-06T04:16:30.113Z,64.94
2023-04-06T04:17:29.926Z,64.87
2023-04-06T04:18:29.837Z,64.84
2023-04-06T04:19:29.882Z,64.84
2023-04-06T04:20:29.730Z,64.75
2023-04-06T04:21:29.656Z,64.46
2023-04-06T04:22:29.596Z,64.37
2023-04-06T04:23:29.542Z,64.46
2023-04-06T04:24:29.482Z,64.56
2023-04-06T04:25:29.428Z,64.56
2023-04-06T04:26:29.363Z,64.75
2023-04-06T04:27:29.303Z,64.37
2023-04-06T04:28:29.240Z,64.78
2023-04-06T04:29:29.185Z,64.75
2023-04-06T04:30:29.125Z,64.37
2023-04-06T04:31:29.097Z,64.56
2023-04-06T04:32:29.034Z,64.94
2023-04-06T04:33:28.947Z,65.22
2023-04-06T04:34:28.893Z,64.46
2023-04-06T04:35:28.874Z,64.56
2023-04-06T04:36:28.777Z,64.84
2023-04-06T04:37:28.726Z,64.75
2023-04-06T04:38:28.659Z,64.75
2023-04-06T04:39:28.595Z,64.75
2023-04-06T04:40:28.541Z,64.46
2023-04-06T04:41:28.480Z,64.56
2023-04-06T04:42:28.417Z,64.56
2023-04-06T04:43:29.471Z,64.37
2023-04-06T04:44:28.292Z,64.75
2023-04-06T04:45:28.232Z,64.37
2023-04-06T04:46:28.213Z,64.65
2023-04-06T04:47:28.138Z,64.56
2023-04-06T04:48:28.056Z,64.56
2023-04-06T04:49:28.017Z,64.46
2023-04-06T04:50:27.942Z,64.46
2023-04-06T04:51:27.877Z,64.46
2023-04-06T04:52:27.821Z,64.18
2023-04-06T04:53:27.765Z,64.56
2023-04-06T04:54:27.699Z,64.56
2023-04-06T04:55:27.643Z,64.37
2023-04-06T04:56:27.577Z,64.37
2023-04-06T04:57:27.528Z,64.46
2023-04-06T04:58:27.462Z,64.46
2023-04-06T04:59:27.441Z,64.65
2023-04-06T05:00:27.344Z,64.65
2023-04-06T05:01:27.330Z,64.56
2023-04-06T05:02:27.437Z,64.46
2023-04-06T05:03:27.225Z,64.37
2023-04-06T05:04:27.103Z,64.56
2023-04-06T05:05:27.052Z,64.56
2023-04-06T05:06:26.981Z,64.46
2023-04-06T05:07:26.927Z,64.46
2023-04-06T05:08:26.868Z,64.56
2023-04-06T05:09:26.803Z,64.65
2023-04-06T05:10:26.742Z,64.65
2023-04-06T05:11:26.689Z,64.65
2023-04-06T05:12:26.628Z,64.37
2023-04-06T05:13:26.578Z,64.56
2023-04-06T05:14:26.894Z,64.27
2023-04-06T05:15:26.450Z,64.46
2023-04-06T05:16:26.398Z,64.65
2023-04-06T05:17:26.343Z,64.65
2023-04-06T05:18:26.274Z,64.65
2023-04-06T05:19:26.209Z,64.65
2023-04-06T05:20:26.150Z,64.37
2023-04-06T05:21:27.079Z,64.46
2023-04-06T05:22:26.032Z,64.56
2023-04-06T05:23:25.972Z,64.37
2023-04-06T05:24:25.936Z,64.46
2023-04-06T05:25:25.848Z,64.56
2023-04-06T05:26:25.792Z,64.56
2023-04-06T05:27:25.731Z,64.27
2023-04-06T05:28:25.674Z,64.75
2023-04-06T05:29:25.621Z,64.56
2023-04-06T05:30:25.556Z,64.56
2023-04-06T05:31:25.531Z,64.46
2023-04-06T05:32:25.463Z,64.56
2023-04-06T05:33:25.367Z,64.65
2023-04-06T05:34:25.315Z,64.56
2023-04-06T05:35:25.299Z,64.56
2023-04-06T05:36:25.190Z,64.46
2023-04-06T05:37:25.130Z,64.37
2023-04-06T05:38:25.064Z,64.65
2023-04-06T05:39:25.005Z,64.94
2023-04-06T05:40:24.944Z,64.56
2023-04-06T05:41:24.899Z,64.75
2023-04-06T05:42:24.822Z,64.65
2023-04-06T05:43:24.761Z,64.75
2023-04-06T05:44:24.719Z,64.65
2023-04-06T05:45:24.649Z,64.37
2023-04-06T05:46:24.608Z,64.56
2023-04-06T05:47:24.552Z,64.56
2023-04-06T05:48:24.465Z,64.56
2023-04-06T05:49:24.400Z,65.22
2023-04-06T05:50:24.364Z,64.84
2023-04-06T05:51:24.284Z,64.84
2023-04-06T05:52:24.217Z,64.84
2023-04-06T05:53:24.160Z,64.84
2023-04-06T05:54:24.099Z,64.84
2023-04-06T05:55:24.043Z,64.56
2023-04-06T05:56:23.981Z,65.13
2023-04-06T05:57:23.922Z,64.46
2023-04-06T05:58:23.863Z,64.75
2023-04-06T05:59:23.835Z,64.84
2023-04-06T06:00:23.739Z,64.56
2023-04-06T06:01:23.796Z,64.46
2023-04-06T06:02:23.677Z,64.46
2023-04-06T06:03:23.561Z,64.46
2023-04-06T06:04:23.498Z,64.65
2023-04-06T06:05:23.624Z,64.75
2023-04-06T06:06:23.378Z,64.75
2023-04-06T06:07:23.324Z,64.75
2023-04-06T06:08:23.257Z,64.75
2023-04-06T06:09:23.198Z,64.75
2023-04-06T06:10:23.146Z,64.46
2023-04-06T06:11:23.078Z,64.46
2023-04-06T06:12:23.019Z,65.03
2023-04-06T06:13:22.963Z,64.56
2023-04-06T06:14:22.912Z,65.03
2023-04-06T06:15:22.842Z,65.03
2023-04-06T06:16:22.794Z,64.37
2023-04-06T06:17:27.312Z,65.03
2023-04-06T06:18:22.659Z,65.32
2023-04-06T06:19:33.347Z,65.51
2023-04-06T06:20:27.270Z,65.51
2023-04-06T06:21:22.477Z,65.41
2023-04-06T06:22:22.425Z,65.60
2023-04-06T06:23:22.369Z,65.70
2023-04-06T06:24:22.303Z,65.22
2023-04-06T06:25:22.237Z,65.13
2023-04-06T06:26:22.192Z,65.32
2023-04-06T06:27:22.127Z,65.03
2023-04-06T06:28:22.217Z,65.22
2023-04-06T06:29:21.994Z,65.22
2023-04-06T06:30:23.490Z,65.41
2023-04-06T06:31:21.961Z,65.32
2023-04-06T06:32:21.874Z,65.41
2023-04-06T06:33:21.765Z,65.22
2023-04-06T06:34:21.710Z,65.32
2023-04-06T06:35:21.684Z,65.51
2023-04-06T06:36:21.591Z,65.32
2023-04-06T06:37:21.526Z,65.32
2023-04-06T06:38:23.562Z,64.84
2023-04-06T06:39:21.402Z,64.84
2023-04-06T06:40:21.388Z,64.94
2023-04-06T06:41:21.302Z,64.94
2023-04-06T06:42:21.233Z,64.84
2023-04-06T06:43:21.166Z,65.22
2023-04-06T06:44:21.313Z,65.03
2023-04-06T06:45:21.056Z,65.32
2023-04-06T06:46:21.199Z,65.32
2023-04-06T06:47:20.974Z,65.41
2023-04-06T06:48:20.867Z,65.41
2023-04-06T06:49:20.813Z,65.70
2023-04-06T06:50:20.753Z,65.60
2023-04-06T06:51:20.689Z,65.80
2023-04-06T06:52:20.626Z,66.08
2023-04-06T06:53:20.589Z,65.89
2023-04-06T06:54:20.527Z,65.80
2023-04-06T06:55:20.445Z,65.80
2023-04-06T06:56:20.384Z,65.89
2023-04-06T06:57:20.323Z,65.70
2023-04-06T06:58:20.263Z,65.80
2023-04-06T06:59:20.222Z,65.80
2023-04-06T07:00:20.160Z,65.70
2023-04-06T07:01:20.107Z,65.99
2023-04-06T07:02:20.072Z,66.17
2023-04-06T07:03:19.960Z,66.36
2023-04-06T07:04:19.928Z,66.17
2023-04-06T07:05:27.650Z,65.99
2023-04-06T07:06:19.786Z,65.80
2023-04-06T07:07:19.721Z,65.89
2023-04-06T07:08:19.669Z,65.70
2023-04-06T07:09:19.634Z,65.89
2023-04-06T07:10:19.551Z,65.60
2023-04-06T07:11:19.483Z,66.17
2023-04-06T07:12:19.442Z,66.08
2023-04-06T07:13:19.379Z,66.08
2023-04-06T07:14:19.328Z,65.89
2023-04-06T07:15:19.239Z,65.89
2023-04-06T07:16:19.204Z,66.27
2023-04-06T07:17:19.126Z,66.27
2023-04-06T07:18:19.078Z,66.36
2023-04-06T07:19:19.011Z,66.08
2023-04-06T07:20:18.963Z,66.17
2023-04-06T07:21:18.891Z,66.65
2023-04-06T07:22:18.831Z,66.46
2023-04-06T07:23:18.811Z,66.46
2023-04-06T07:24:18.710Z,66.84
2023-04-06T07:25:18.634Z,66.94
2023-04-06T07:26:18.598Z,66.94
2023-04-06T07:27:18.518Z,66.94
2023-04-06T07:28:18.462Z,67.13
2023-04-06T07:29:18.403Z,67.13
2023-04-06T07:30:18.340Z,67.03
2023-04-06T07:31:18.281Z,67.03
2023-04-06T07:32:18.267Z,67.13
2023-04-06T07:33:18.153Z,67.03
2023-04-06T07:34:18.091Z,66.94
2023-04-06T07:35:18.063Z,66.94
2023-04-06T07:36:17.989Z,67.13
2023-04-06T07:37:17.924Z,67.13
2023-04-06T07:38:17.859Z,67.13
2023-04-06T07:39:17.806Z,66.94
2023-04-06T07:40:17.737Z,67.13
2023-04-06T07:41:17.682Z,67.03
2023-04-06T07:42:17.650Z,67.13
2023-04-06T07:43:17.559Z,67.03
2023-04-06T07:44:17.500Z,67.13
2023-04-06T07:45:17.435Z,67.03
2023-04-06T07:46:17.409Z,66.94
2023-04-06T07:47:17.329Z,66.94
2023-04-06T07:48:17.257Z,67.03
2023-04-06T07:49:17.195Z,66.94
2023-04-06T07:50:17.146Z,66.84
2023-04-06T07:51:17.081Z,66.94
2023-04-06T07:52:19.790Z,67.03
2023-04-06T07:53:16.968Z,66.84
2023-04-06T07:54:16.912Z,66.74
2023-04-06T07:55:16.841Z,66.84
2023-04-06T07:56:16.773Z,66.94
2023-04-06T07:57:16.722Z,66.84
2023-04-06T07:58:16.662Z,66.84
2023-04-06T07:59:16.662Z,66.55
2023-04-06T08:00:16.545Z,66.84
2023-04-06T08:01:16.481Z,66.84
2023-04-06T08:02:16.447Z,66.94
2023-04-06T08:03:16.562Z,67.13
2023-04-06T08:04:16.346Z,67.03
2023-04-06T08:05:16.242Z,66.55
2023-04-06T08:06:16.177Z,66.74
2023-04-06T08:07:16.128Z,66.46
2023-04-06T08:08:16.061Z,66.84
2023-04-06T08:09:16.014Z,66.84
2023-04-06T08:10:15.940Z,66.36
2023-04-06T08:11:15.878Z,66.46
2023-04-06T08:12:15.821Z,66.46
2023-04-06T08:13:15.758Z,66.46
2023-04-06T08:14:15.699Z,66.65
2023-04-06T08:15:15.648Z,66.46
2023-04-06T08:16:15.585Z,66.55
2023-04-06T08:17:15.532Z,66.46
2023-04-06T08:18:15.574Z,66.46
2023-04-06T08:19:15.397Z,66.46
2023-04-06T08:20:15.338Z,66.55
2023-04-06T08:21:15.282Z,66.46
2023-04-06T08:22:15.229Z,66.46
2023-04-06T08:23:15.164Z,66.55
2023-04-06T08:24:15.140Z,66.46
2023-04-06T08:25:15.053Z,66.36
2023-04-06T08:26:14.980Z,66.17
2023-04-06T08:27:14.939Z,66.17
2023-04-06T08:28:14.854Z,66.08
2023-04-06T08:29:14.810Z,66.27
2023-04-06T08:30:14.738Z,66.08
2023-04-06T08:31:14.723Z,66.08
2023-04-06T08:32:14.627Z,66.08
2023-04-06T08:33:14.556Z,65.99
2023-04-06T08:34:14.949Z,66.17
2023-04-06T08:35:14.436Z,66.17
2023-04-06T08:36:14.375Z,66.08
2023-04-06T08:37:14.319Z,65.99
2023-04-06T08:38:14.261Z,66.08
2023-04-06T08:39:14.195Z,65.99
2023-04-06T08:40:14.157Z,66.08
2023-04-06T08:41:14.087Z,66.08
2023-04-06T08:42:14.021Z,66.36
2023-04-06T08:43:13.954Z,66.08
2023-04-06T08:44:13.909Z,66.08
2023-04-06T08:45:13.839Z,66.08
2023-04-06T08:46:13.808Z,66.27
2023-04-06T08:47:13.723Z,66.36
2023-04-06T08:48:13.685Z,66.08
2023-04-06T08:49:13.607Z,65.99
2023-04-06T08:50:13.542Z,66.36
2023-04-06T08:51:13.480Z,66.08
2023-04-06T08:52:13.421Z,66.17
2023-04-06T08:53:13.363Z,66.17
2023-04-06T08:54:13.301Z,66.46
2023-04-06T08:55:13.241Z,65.89
2023-04-06T08:56:13.175Z,66.08
2023-04-06T08:57:13.128Z,66.27
2023-04-06T08:58:14.550Z,66.08
2023-04-06T08:59:13.126Z,66.36
2023-04-06T09:00:13.005Z,66.08
2023-04-06T09:01:13.084Z,66.08
2023-04-06T09:02:12.854Z,66.20
2023-04-06T09:03:12.891Z,66.17
2023-04-06T09:04:13.722Z,66.08
2023-04-06T09:05:12.644Z,65.89
2023-04-06T09:06:12.581Z,65.80
2023-04-06T09:07:12.528Z,66.17
2023-04-06T09:08:12.456Z,65.92
2023-04-06T09:09:12.403Z,65.99
2023-04-06T09:10:12.345Z,66.08
2023-04-06T09:11:12.288Z,66.11
2023-04-06T09:12:12.216Z,66.02
2023-04-06T09:13:12.172Z,66.27
2023-04-06T09:14:14.809Z,66.08
2023-04-06T09:15:12.050Z,66.08
2023-04-06T09:16:12.025Z,66.36
2023-04-06T09:17:11.921Z,66.36
2023-04-06T09:18:11.865Z,66.20
2023-04-06T09:19:11.811Z,66.30
2023-04-06T09:20:11.748Z,66.20
2023-04-06T09:21:11.688Z,66.39
2023-04-06T09:22:11.626Z,66.39
2023-04-06T09:23:11.565Z,66.08
2023-04-06T09:24:11.887Z,66.20
2023-04-06T09:25:11.532Z,66.20
2023-04-06T09:26:11.387Z,66.39
2023-04-06T09:27:11.326Z,65.70
2023-04-06T09:28:11.266Z,66.20
2023-04-06T09:29:11.222Z,66.02
2023-04-06T09:30:11.161Z,66.20
2023-04-06T09:31:11.176Z,66.11
2023-04-06T09:32:11.031Z,66.20
2023-04-06T09:33:10.976Z,65.92
2023-04-06T09:34:11.103Z,65.92
2023-04-06T09:35:10.872Z,66.20
2023-04-06T09:36:10.794Z,65.92
2023-04-06T09:37:10.735Z,65.64
2023-04-06T09:38:10.674Z,65.73
2023-04-06T09:39:10.615Z,65.64
2023-04-06T09:40:10.554Z,65.64
2023-04-06T09:41:10.495Z,65.92
2023-04-06T09:42:10.435Z,66.39
2023-04-06T09:43:10.421Z,66.02
2023-04-06T09:44:10.486Z,66.30
2023-04-06T09:45:10.296Z,65.73
2023-04-06T09:46:10.197Z,66.20
2023-04-06T09:47:10.187Z,66.30
2023-04-06T09:48:10.129Z,66.20
2023-04-06T09:49:10.087Z,66.20
2023-04-06T09:50:09.954Z,65.92
2023-04-06T09:51:09.907Z,65.73
2023-04-06T09:52:09.859Z,66.30
2023-04-06T09:53:09.773Z,66.39
2023-04-06T09:54:09.868Z,66.11
2023-04-06T09:55:09.661Z,65.73
2023-04-06T09:56:09.612Z,66.02
2023-04-06T09:57:10.407Z,65.35
2023-04-06T09:58:09.536Z,65.54
2023-04-06T09:59:09.747Z,65.64
2023-04-06T10:00:09.366Z,64.78
2023-04-06T10:01:09.383Z,64.69
2023-04-06T10:02:09.236Z,64.31
2023-04-06T10:03:09.739Z,64.21
2023-04-06T10:04:09.834Z,64.21
2023-04-06T10:05:09.079Z,64.21
2023-04-06T10:06:08.999Z,64.31
2023-04-06T10:07:28.100Z,64.21
2023-04-06T10:08:08.875Z,64.21
2023-04-06T10:09:08.814Z,64.11
2023-04-06T10:10:08.759Z,64.50
2023-04-06T10:11:08.709Z,64.31
2023-04-06T10:12:08.634Z,64.40
2023-04-06T10:13:08.598Z,64.11
2023-04-06T10:14:08.686Z,64.11
2023-04-06T10:15:08.459Z,64.11
2023-04-06T10:16:08.424Z,64.40
2023-04-06T10:17:08.351Z,64.21
2023-04-06T10:18:08.279Z,63.83
2023-04-06T10:19:08.217Z,64.21
2023-04-06T10:20:08.156Z,64.21
2023-04-06T10:21:08.103Z,64.40
2023-04-06T10:22:08.040Z,64.50
2023-04-06T10:23:07.986Z,64.31
2023-04-06T10:24:08.263Z,64.31
2023-04-06T10:25:07.875Z,64.31
2023-04-06T10:26:07.807Z,64.40
2023-04-06T10:27:07.741Z,64.31
2023-04-06T10:28:07.699Z,64.40
2023-04-06T10:29:07.628Z,64.34
2023-04-06T10:30:07.565Z,64.21
2023-04-06T10:31:07.554Z,64.21
2023-04-06T10:32:07.531Z,64.40
2023-04-06T10:33:07.471Z,64.21
2023-04-06T10:34:07.701Z,63.86
2023-04-06T10:35:07.277Z,63.67
2023-04-06T10:36:07.265Z,63.76
2023-04-06T10:37:07.149Z,63.86
2023-04-06T10:38:07.109Z,63.92
2023-04-06T10:39:07.054Z,63.67
2023-04-06T10:40:06.972Z,64.05
2023-04-06T10:41:06.944Z,64.05
2023-04-06T10:42:06.857Z,63.86
2023-04-06T10:43:06.823Z,63.57
2023-04-06T10:44:06.861Z,64.05
2023-04-06T10:45:06.674Z,63.20
2023-04-06T10:46:06.665Z,63.10
2023-04-06T10:47:06.567Z,62.62
2023-04-06T10:48:06.553Z,63.10
2023-04-06T10:49:06.449Z,62.91
2023-04-06T10:50:06.379Z,63.01
2023-04-06T10:51:06.321Z,62.53
2023-04-06T10:52:06.257Z,62.43
2023-04-06T10:53:06.205Z,62.91
2023-04-06T10:54:06.145Z,63.10
2023-04-06T10:55:06.082Z,62.81
2023-04-06T10:56:06.031Z,62.81
2023-04-06T10:57:05.968Z,62.91
2023-04-06T10:58:05.908Z,63.10
2023-04-06T10:59:05.867Z,63.20
2023-04-06T11:00:05.785Z,62.91
2023-04-06T11:01:05.744Z,63.48
2023-04-06T11:02:05.665Z,63.39
2023-04-06T11:03:05.675Z,63.39
2023-04-06T11:04:05.593Z,64.05
2023-04-06T11:05:05.498Z,63.57
2023-04-06T11:06:05.426Z,63.57
2023-04-06T11:07:05.373Z,63.48
2023-04-06T11:08:05.326Z,63.96
2023-04-06T11:09:05.249Z,63.67
2023-04-06T11:10:16.609Z,63.67
2023-04-06T11:11:05.129Z,63.67
2023-04-06T11:12:05.066Z,64.05
2023-04-06T11:13:09.862Z,63.57
2023-04-06T11:14:04.948Z,63.96
2023-04-06T11:15:04.904Z,63.86
2023-04-06T11:16:04.828Z,63.86
2023-04-06T11:17:04.829Z,63.86
2023-04-06T11:18:04.754Z,63.76
2023-04-06T11:19:04.657Z,63.67
2023-04-06T11:20:04.703Z,64.15
2023-04-06T11:21:04.540Z,63.20
2023-04-06T11:22:04.480Z,63.29
2023-04-06T11:23:04.428Z,63.20
2023-04-06T11:24:04.361Z,63.29
2023-04-06T11:25:04.301Z,63.39
2023-04-06T11:26:04.242Z,63.76
2023-04-06T11:27:04.187Z,63.67
2023-04-06T11:28:04.124Z,63.86
2023-04-06T11:29:04.070Z,63.86
2023-04-06T11:30:04.005Z,63.76
2023-04-06T11:31:04.003Z,63.86
2023-04-06T11:32:03.889Z,63.76
2023-04-06T11:33:03.885Z,63.96
2023-04-06T11:34:03.768Z,63.48
2023-04-06T11:35:03.717Z,63.39
2023-04-06T11:36:03.674Z,63.20
2023-04-06T11:37:03.599Z,63.39
2023-04-06T11:38:03.540Z,63.10
2023-04-06T11:39:03.473Z,64.05
2023-04-06T11:40:03.426Z,63.48
2023-04-06T11:41:03.360Z,63.67
2023-04-06T11:42:03.792Z,64.05
2023-04-06T11:43:03.239Z,63.67
2023-04-06T11:44:03.179Z,63.76
2023-04-06T11:45:03.137Z,63.67
2023-04-06T11:46:03.126Z,63.76
2023-04-06T11:47:03.032Z,63.86
2023-04-06T11:48:02.978Z,63.76
2023-04-06T11:49:02.930Z,63.86
2023-04-06T11:50:02.831Z,63.96
2023-04-06T11:51:02.763Z,63.39
2023-04-06T11:52:02.708Z,63.32
2023-04-06T11:53:02.667Z,63.48
2023-04-06T11:54:02.590Z,63.42
2023-04-06T11:55:02.529Z,63.99
2023-04-06T11:56:02.517Z,64.08
2023-04-06T11:57:02.409Z,63.51
2023-04-06T11:58:02.347Z,63.89
2023-04-06T11:59:02.338Z,63.80
2023-04-06T12:00:02.238Z,63.70
2023-04-06T12:01:02.175Z,63.89
2023-04-06T12:02:02.118Z,63.70
2023-04-06T12:03:02.220Z,63.80
2023-04-06T12:04:02.222Z,63.86
2023-04-06T12:05:01.973Z,63.67
2023-04-06T12:06:01.876Z,63.57
2023-04-06T12:07:01.818Z,63.86
2023-04-06T12:08:03.496Z,63.80
2023-04-06T12:09:01.724Z,63.86
2023-04-06T12:10:01.643Z,63.67
2023-04-06T12:11:01.612Z,63.70
2023-04-06T12:12:01.523Z,63.70
2023-04-06T12:13:01.463Z,63.89
2023-04-06T12:14:01.415Z,63.76
2023-04-06T12:15:01.359Z,63.23
2023-04-06T12:16:01.294Z,63.13
2023-04-06T12:17:01.224Z,63.23
2023-04-06T12:18:01.200Z,63.51
2023-04-06T12:19:01.130Z,63.32
2023-04-06T12:20:09.544Z,63.13
2023-04-06T12:21:00.989Z,63.32
2023-04-06T12:22:01.001Z,63.23
2023-04-06T12:23:00.872Z,63.32
2023-04-06T12:24:11.371Z,64.18
2023-04-06T12:25:00.759Z,63.99
2023-04-06T12:26:00.703Z,64.08
2023-04-06T12:27:09.446Z,63.80
2023-04-06T12:28:00.580Z,63.89
2023-04-06T12:29:00.545Z,63.70
2023-04-06T12:30:00.471Z,63.70
2023-04-06T12:31:00.398Z,64.08
2023-04-06T12:32:00.515Z,63.42
2023-04-06T12:33:00.501Z,62.94
2023-04-06T12:34:00.227Z,63.13
2023-04-06T12:35:00.165Z,63.13
2023-04-06T12:36:00.150Z,63.13
2023-04-06T12:37:00.069Z,63.32
2023-04-06T12:37:59.991Z,63.23
2023-04-06T12:38:59.932Z,63.32
2023-04-06T12:39:59.885Z,64.08
2023-04-06T12:40:59.819Z,63.51
2023-04-06T12:41:59.754Z,63.80
2023-04-06T12:42:59.700Z,63.89
2023-04-06T12:43:59.643Z,64.18
2023-04-06T12:44:59.590Z,63.23
2023-04-06T12:45:59.521Z,63.04
2023-04-06T12:46:59.556Z,62.56
2023-04-06T12:47:59.461Z,62.85
2023-04-06T12:48:59.353Z,62.27
2023-04-06T12:49:59.286Z,62.27
2023-04-06T12:50:59.229Z,61.90
2023-04-06T12:51:59.173Z,62.37